Popůvky, Czech Republic

10:54 PM CET on January 26, 2015 (GMT +0100)
Zbysov (Jizni Morava) | Change Station
CLOSE
Current Station
Personal Weather Station
Location: Zbysov, Jizni Morava
Elevation: 1115 ft
Nearby Weather Stations

Elev 1115 ft 49.15 °N, 16.35 °E | Updated 9 minutes ago

Clear
Clear
27.1 °F
Feels Like 27 °F
N
0.0
Wind Variable Wind from South
Gusts 0.0 mph

Today
High -- | Low -- °F
--% Chance of Precip.
Yesterday
High -- | Low -- °F
Precip. -- in
7:34 AM 4:41 PM
Waxing Crescent, 47% visible
Pressure 30.09 in
Visibility -9999.0 miles
Clouds
Windchill 27 °F
Dew Point 23 °F
Humidity 85%
Rainfall 0.00 in
Snow Depth Not available.
UV Not available.
Pollen Not available.
Air Quality Not available.
Flu Activity Not available.
METAR LKTB 262130Z 09005KT 060V130 CAVOK M03/M06 Q1019 NOSIG

More Conditions Fewer Conditions

Pressure 30.09 in
Visibility -9999.0 miles
Clouds
Windchill 27 °F
Dew Point 23 °F
Humidity 85%
Rainfall 0.00 in
Snow Depth Not available.
UV Not available.
Pollen Not available.
Air Quality Not available.
Flu Activity Not available.
METAR LKTB 262130Z 09005KT 060V130 CAVOK M03/M06 Q1019 NOSIG

More Conditions Fewer Conditions

10-Day Weather Forecast

Almanac

Astronomy

Jan. 26, 2015 Rise Set
Actual Time
Civil Twilight
Nautical Twilight
Astronomical Twilight
Moon
Length of Visible Light
Length of Day
Tomorrow will be .
, % of the Moon is Illuminated

Today's Extremes

Country Highs Country Lows

Community

WunderPhotos

Upload Photos

1,790,370 photos uploaded!

WunderBlogs® & News

Nearby

Air Quality

  Air Quality AQ Index Pollutant
Not available.

Snow Depth

Station Depth Elevation

Earthquake Activity

City Distance Mag. Time & Date
Minimum magnitude displayed is 2.5.

Coastal Water Temperatures

Place Temperature

Nearby Weather Stations